Time;durP1;ratioP1;P1;durP2;ratioP2;P2;SDS_P1;SDS_P2;PMS_P1;PMS_P2;Temp;Humidity;BMP_temperature;BMP_pressure;BME280_temperature;BME280_humidity;BME280_pressure;Samples;Min_cycle;Max_cycle;Signal;HPM_P1;HPM_P2
2020/01/07 00:00:14;;;;;;;33.1;29.6;;;;;;;-0.11;95.88379;967.182;;;;
2020/01/07 00:02:39;;;;;;;35.5;31.6;;;;;;;-0.13;95.84766;967.1766;;;;
2020/01/07 00:05:04;;;;;;;35.2;30.2;;;;;;;-0.14;95.61719;967.1683;;;;
2020/01/07 00:07:29;;;;;;;33.3;29.7;;;;;;;-0.11;95.74902;967.1561;;;;
2020/01/07 00:09:54;;;;;;;33.6;29.1;;;;;;;-0.22;96.02734;967.1956;;;;
2020/01/07 00:12:20;;;;;;;34.2;30;;;;;;;-0.24;96.11328;967.1153;;;;
2020/01/07 00:14:45;;;;;;;32.1;28.6;;;;;;;-0.13;95.8457;967.0809;;;;
2020/01/07 00:17:10;;;;;;;32.8;29.3;;;;;;;-0.12;95.72461;967.1376;;;;
2020/01/07 00:19:37;;;;;;;33.2;29.7;;;;;;;-0.16;95.74805;967.1981;;;;
2020/01/07 00:22:01;;;;;;;32.5;29;;;;;;;-0.16;96.17383;967.2261;;;;
2020/01/07 00:24:26;;;;;;;31.8;28.4;;;;;;;-0.09;95.98828;967.1901;;;;
2020/01/07 00:26:51;;;;;;;34.8;29.3;;;;;;;-0.2;95.85156;967.1972;;;;
2020/01/07 00:29:16;;;;;;;31.6;28.2;;;;;;;-0.17;96.13867;967.1598;;;;
2020/01/07 00:31:41;;;;;;;30.6;27.3;;;;;;;-0.19;95.84082;967.0894;;;;
2020/01/07 00:34:07;;;;;;;30.7;26.8;;;;;;;-0.15;95.3457;967.0521;;;;
2020/01/07 00:36:32;;;;;;;30.5;27.2;;;;;;;-0.26;95.97461;967.0865;;;;
2020/01/07 00:38:57;;;;;;;30.4;27.1;;;;;;;-0.21;95.80469;967.1889;;;;
2020/01/07 00:41:22;;;;;;;31.6;27.1;;;;;;;-0.18;95.56445;967.1508;;;;
2020/01/07 00:43:48;;;;;;;30.2;26.7;;;;;;;-0.19;95.5957;967.1841;;;;
2020/01/07 00:46:13;;;;;;;29.2;25.4;;;;;;;-0.1;95.37109;967.157;;;;
2020/01/07 00:48:38;;;;;;;27.9;24.9;;;;;;;-0.15;95.8418;967.1252;;;;
2020/01/07 00:51:03;;;;;;;24.6;22;;;;;;;-0.03;95.53125;967.1074;;;;
2020/01/07 00:53:28;;;;;;;24.1;21.5;;;;;;;-0.08;95.53223;967.085;;;;
2020/01/07 00:55:54;;;;;;;14.1;12.6;;;;;;;0.33;90.41016;967.1262;;;;
2020/01/07 00:58:19;;;;;;;12.9;11.2;;;;;;;0.52;89.75488;967.111;;;;
2020/01/07 01:00:45;;;;;;;12.3;11;;;;;;;0.67;87.52734;967.0959;;;;
2020/01/07 01:03:24;;;;;;;12.2;10.9;;;;;;;0.66;88.20898;967.113;;;;
2020/01/07 01:05:35;;;;;;;13.4;12;;;;;;;0.64;88.96973;967.073;;;;
2020/01/07 01:08:00;;;;;;;12.4;11.1;;;;;;;0.76;88.12891;967.1882;;;;
2020/01/07 01:10:25;;;;;;;15.2;13.6;;;;;;;0.71;89.48047;967.1384;;;;
2020/01/07 01:12:50;;;;;;;12.8;10.7;;;;;;;0.56;89.58105;967.1183;;;;
2020/01/07 01:15:16;;;;;;;13;11.5;;;;;;;0.49;90.35449;967.2076;;;;
2020/01/07 01:17:41;;;;;;;13.6;12.2;;;;;;;0.51;90.60742;967.1883;;;;
2020/01/07 01:20:06;;;;;;;13.4;12;;;;;;;0.52;90.36035;967.3272;;;;
2020/01/07 01:22:31;;;;;;;17;15.1;;;;;;;0.56;90.33594;967.4264;;;;
2020/01/07 01:24:56;;;;;;;15.8;14.1;;;;;;;0.62;89.875;967.3878;;;;
2020/01/07 01:27:21;;;;;;;13;10.8;;;;;;;0.85;86.51563;967.3613;;;;
2020/01/07 01:29:48;;;;;;;12;10.3;;;;;;;0.97;85.30371;967.2628;;;;
2020/01/07 01:32:14;;;;;;;11;9.9;;;;;;;1;85.30859;967.5178;;;;
2020/01/07 01:34:40;;;;;;;11.3;9.7;;;;;;;1.08;85.19922;967.4317;;;;
2020/01/07 01:37:05;;;;;;;10.9;9.3;;;;;;;1.12;83.9248;967.4462;;;;
2020/01/07 01:39:30;;;;;;;10.2;9.1;;;;;;;1.21;83.60547;967.4483;;;;
2020/01/07 01:41:55;;;;;;;10.1;8.7;;;;;;;1.24;83.39844;967.3633;;;;
2020/01/07 01:44:20;;;;;;;9.6;8.6;;;;;;;1.22;83.81152;967.2098;;;;
2020/01/07 01:46:45;;;;;;;10;8.8;;;;;;;1.15;84.88965;967.2101;;;;
2020/01/07 01:49:10;;;;;;;10.1;9.1;;;;;;;1.13;85.31348;967.0708;;;;
2020/01/07 01:51:35;;;;;;;10.5;9.4;;;;;;;1.09;85.09277;967.2046;;;;
2020/01/07 01:54:02;;;;;;;10;9;;;;;;;1.24;84.42285;967.1728;;;;
2020/01/07 01:56:27;;;;;;;10.2;8.7;;;;;;;1.32;83.53613;967.1867;;;;
2020/01/07 01:58:52;;;;;;;8.4;7.6;;;;;;;1.4;83.28418;967.0917;;;;
2020/01/07 02:01:17;;;;;;;8.7;7.8;;;;;;;1.52;83.45313;967.0162;;;;
2020/01/07 02:03:42;;;;;;;9.6;8;;;;;;;1.49;83.76367;967.1016;;;;
2020/01/07 02:06:07;;;;;;;8.6;7.7;;;;;;;1.61;83.09863;967.3166;;;;
2020/01/07 02:08:32;;;;;;;9;7.5;;;;;;;1.64;83.2959;967.2872;;;;
2020/01/07 02:10:57;;;;;;;8.5;7.6;;;;;;;1.83;82.6582;967.1842;;;;
2020/01/07 02:13:22;;;;;;;9.1;7.5;;;;;;;1.81;83.04688;967.0838;;;;
2020/01/07 02:15:47;;;;;;;8.7;7.6;;;;;;;1.93;82.71094;966.9702;;;;
2020/01/07 02:18:13;;;;;;;8.6;7;;;;;;;2.14;81.80469;967.0941;;;;
2020/01/07 02:20:38;;;;;;;7.6;6.8;;;;;;;2.3;81.15723;967.1497;;;;
2020/01/07 02:23:03;;;;;;;8.9;6.9;;;;;;;2.29;81.66309;967.2608;;;;
2020/01/07 02:25:28;;;;;;;7.4;6.6;;;;;;;2.35;80.79492;967.2341;;;;
2020/01/07 02:27:53;;;;;;;8.4;7.3;;;;;;;2.43;80.77441;967.3049;;;;
2020/01/07 02:30:19;;;;;;;7.3;6.6;;;;;;;2.37;80.77539;967.3022;;;;
2020/01/07 02:32:44;;;;;;;7.9;6.7;;;;;;;2.33;80.86816;967.2848;;;;
2020/01/07 02:35:09;;;;;;;7.6;6.8;;;;;;;2.31;80.74121;967.2985;;;;
2020/01/07 02:37:35;;;;;;;7.9;7.1;;;;;;;2.24;81.93555;967.3812;;;;
2020/01/07 02:40:00;;;;;;;8.1;7.3;;;;;;;2.14;82.49316;967.3953;;;;
2020/01/07 02:42:25;;;;;;;8.7;7.6;;;;;;;2.21;81.12891;967.4142;;;;
2020/01/07 02:44:50;;;;;;;8.2;7.2;;;;;;;2.14;82.41406;967.3488;;;;
2020/01/07 02:47:16;;;;;;;8.9;7.2;;;;;;;2.11;82.4541;967.2255;;;;
2020/01/07 02:49:41;;;;;;;9.2;7.3;;;;;;;2.13;81.82617;967.2269;;;;
2020/01/07 02:52:06;;;;;;;7.9;7;;;;;;;2.15;83.14941;967.2701;;;;
2020/01/07 02:54:31;;;;;;;8.1;7.3;;;;;;;2.23;81.92188;967.4171;;;;
2020/01/07 02:56:56;;;;;;;8.6;7.2;;;;;;;2.34;81.67188;967.4023;;;;
2020/01/07 02:59:21;;;;;;;8.7;6.8;;;;;;;2.48;80.86328;967.4993;;;;
2020/01/07 03:01:49;;;;;;;8.8;7.3;;;;;;;2.39;81.75;967.601;;;;
2020/01/07 03:04:14;;;;;;;9.3;7;;;;;;;2.45;81.24414;967.6662;;;;
2020/01/07 03:06:47;;;;;;;7.4;6.7;;;;;;;2.63;80.16992;967.6086;;;;
2020/01/07 03:09:06;;;;;;;9;7.3;;;;;;;2.55;80.48242;967.6716;;;;
2020/01/07 03:11:29;;;;;;;8;7.2;;;;;;;2.52;81.0625;967.7772;;;;
2020/01/07 03:13:54;;;;;;;8.2;7.1;;;;;;;2.47;82.17383;967.8233;;;;
2020/01/07 03:16:20;;;;;;;7.7;6.9;;;;;;;2.37;83.1582;967.8186;;;;
2020/01/07 03:18:45;;;;;;;7.5;6.8;;;;;;;2.32;82.58496;967.8789;;;;
2020/01/07 03:21:38;;;;;;;8.3;7.1;;;;;;;2.14;83.72168;967.9192;;;;
2020/01/07 03:23:37;;;;;;;8.5;7.4;;;;;;;2.08;84.65723;967.9008;;;;
2020/01/07 03:26:02;;;;;;;8.7;7.3;;;;;;;2.05;84.07617;967.875;;;;
2020/01/07 03:28:27;;;;;;;8.5;7.5;;;;;;;2.09;84.66016;967.8872;;;;
2020/01/07 03:30:52;;;;;;;8.5;7.6;;;;;;;1.95;84.74512;967.8733;;;;
2020/01/07 03:33:17;;;;;;;9.5;7.9;;;;;;;1.9;85.17383;967.9319;;;;
2020/01/07 03:35:43;;;;;;;9.2;7.4;;;;;;;2.16;83.52344;967.9322;;;;
2020/01/07 03:38:08;;;;;;;8.8;7.9;;;;;;;2.23;83.2334;967.9254;;;;
2020/01/07 03:40:33;;;;;;;8.9;7.9;;;;;;;2.15;83.32813;967.9197;;;;
2020/01/07 03:42:58;;;;;;;8.7;7.8;;;;;;;2.15;83.33984;967.915;;;;
2020/01/07 03:45:23;;;;;;;8.8;7.9;;;;;;;2.26;82.82031;967.9425;;;;
2020/01/07 03:47:48;;;;;;;8.4;7.5;;;;;;;2.22;82.91406;967.9731;;;;
2020/01/07 03:50:13;;;;;;;10.5;8.2;;;;;;;2.03;84.39063;968.0156;;;;
2020/01/07 03:52:39;;;;;;;10.3;8.2;;;;;;;2.16;83.02539;968.0952;;;;
2020/01/07 03:55:04;;;;;;;9.1;8;;;;;;;2.24;83.05469;968.0694;;;;
2020/01/07 03:57:29;;;;;;;8.6;7.7;;;;;;;2.23;82.50684;968.1493;;;;
2020/01/07 03:59:54;;;;;;;9.8;8.3;;;;;;;2.13;83.61621;968.1389;;;;
2020/01/07 04:02:27;;;;;;;8.5;7.6;;;;;;;2.16;83.44434;968.1711;;;;
2020/01/07 04:04:52;;;;;;;8.8;7.9;;;;;;;2.11;84.37988;968.1568;;;;
2020/01/07 04:07:17;;;;;;;9.4;8.3;;;;;;;2.15;82.87695;968.1417;;;;
2020/01/07 04:09:42;;;;;;;9.5;8.5;;;;;;;2.13;83.25684;968.111;;;;
2020/01/07 04:12:07;;;;;;;9.9;8.8;;;;;;;2.19;83.32617;968.106;;;;
2020/01/07 04:14:32;;;;;;;8.8;7.9;;;;;;;2.26;83.02441;968.1058;;;;
2020/01/07 04:16:57;;;;;;;9.8;8.7;;;;;;;2.36;82.20801;968.0747;;;;
2020/01/07 04:19:22;;;;;;;10.4;8.7;;;;;;;2.42;81.7666;968.0062;;;;
2020/01/07 04:21:47;;;;;;;10.5;8.6;;;;;;;2.42;81.47461;968.012;;;;
2020/01/07 04:24:13;;;;;;;9.6;8.6;;;;;;;2.45;81.91992;968.0468;;;;
2020/01/07 04:26:38;;;;;;;9.5;8.5;;;;;;;2.5;81.65918;968.0189;;;;
2020/01/07 04:29:03;;;;;;;9.7;8.7;;;;;;;2.55;81.18262;967.9515;;;;
2020/01/07 04:31:28;;;;;;;11.8;9.1;;;;;;;2.61;81.60156;967.9396;;;;
2020/01/07 04:33:53;;;;;;;10.6;9;;;;;;;2.66;81.01074;968.0334;;;;
2020/01/07 04:36:18;;;;;;;10.3;9.1;;;;;;;2.73;80.84375;968.0567;;;;
2020/01/07 04:38:43;;;;;;;9.9;8.6;;;;;;;2.74;80.7666;968.0692;;;;
2020/01/07 04:41:08;;;;;;;9.7;8.3;;;;;;;2.76;80.27246;967.9981;;;;
2020/01/07 04:43:33;;;;;;;9.5;8.1;;;;;;;2.8;80.31348;968.0061;;;;
2020/01/07 04:45:58;;;;;;;9.9;8.4;;;;;;;2.84;80.28809;968.0046;;;;
2020/01/07 04:48:23;;;;;;;12;8.9;;;;;;;2.82;80.23926;967.9894;;;;
2020/01/07 04:50:48;;;;;;;9.5;8.5;;;;;;;2.83;80.07129;967.9391;;;;
2020/01/07 04:53:14;;;;;;;9.8;8.8;;;;;;;2.77;80.40039;967.9874;;;;
2020/01/07 04:55:39;;;;;;;10;8.6;;;;;;;2.8;80.00977;967.996;;;;
2020/01/07 04:58:04;;;;;;;9.6;8.6;;;;;;;2.86;80.0332;968.0005;;;;
2020/01/07 05:00:29;;;;;;;10.2;8.9;;;;;;;2.88;79.61816;967.9858;;;;
2020/01/07 05:02:54;;;;;;;9.3;8;;;;;;;2.84;80.27832;967.9866;;;;
2020/01/07 05:05:19;;;;;;;9.3;8.1;;;;;;;2.91;80.5498;967.9713;;;;
2020/01/07 05:07:44;;;;;;;9.4;8.3;;;;;;;2.96;80.41309;968.0366;;;;
2020/01/07 05:12:26;;;;;;;9;8.1;;;;;;;3.06;80.1377;968.1136;;;;
2020/01/07 05:14:52;;;;;;;9.1;8.2;;;;;;;3.04;81.28613;968.1127;;;;
2020/01/07 05:17:17;;;;;;;10.5;8.7;;;;;;;3.04;80.15527;968.0829;;;;
2020/01/07 05:19:42;;;;;;;10;9;;;;;;;2.97;80.47168;968.0629;;;;
2020/01/07 05:22:07;;;;;;;11.3;8.7;;;;;;;2.96;81.2373;968.0773;;;;
2020/01/07 05:24:32;;;;;;;9.8;8.8;;;;;;;2.91;81.60156;968.0678;;;;
2020/01/07 05:26:58;;;;;;;9.9;8.9;;;;;;;2.74;82.76855;968.0945;;;;
2020/01/07 05:29:25;;;;;;;9.3;8.3;;;;;;;2.81;82.56738;968.1678;;;;
2020/01/07 05:35:01;;;;;;;9.7;8.6;;;;;;;3.11;80.59863;968.1739;;;;
2020/01/07 05:36:38;;;;;;;10.2;9.1;;;;;;;2.86;81.04883;968.1982;;;;
2020/01/07 05:39:03;;;;;;;9.8;8.8;;;;;;;3.01;80.7041;968.2349;;;;
2020/01/07 05:41:28;;;;;;;10.7;9.6;;;;;;;2.91;80.69824;968.2324;;;;
2020/01/07 05:43:54;;;;;;;10.7;9.6;;;;;;;2.81;81.01953;968.2737;;;;
2020/01/07 05:46:19;;;;;;;11;9.2;;;;;;;3.08;80.53711;968.267;;;;
2020/01/07 05:48:45;;;;;;;10.2;9.2;;;;;;;2.87;81.41406;968.3339;;;;
2020/01/07 05:51:10;;;;;;;10.2;9.1;;;;;;;2.81;81.53711;968.3021;;;;
2020/01/07 05:53:35;;;;;;;11;9.4;;;;;;;2.79;82.01953;968.3229;;;;
2020/01/07 05:56:00;;;;;;;11.2;9.6;;;;;;;2.87;81.70801;968.3436;;;;
2020/01/07 05:58:25;;;;;;;10.5;9.4;;;;;;;2.83;82.07227;968.4258;;;;
2020/01/07 06:00:51;;;;;;;10.6;9.5;;;;;;;2.83;82.24023;968.449;;;;
2020/01/07 06:03:16;;;;;;;10.7;9.6;;;;;;;2.82;81.97949;968.4236;;;;
2020/01/07 06:05:41;;;;;;;10.5;9.4;;;;;;;2.8;82.31348;968.4496;;;;
2020/01/07 06:08:06;;;;;;;11.9;9.9;;;;;;;2.93;81.59375;968.5176;;;;
2020/01/07 06:10:31;;;;;;;10.5;9.4;;;;;;;2.93;82.01172;968.5655;;;;
2020/01/07 06:12:56;;;;;;;12.5;10.6;;;;;;;2.85;82.05273;968.6164;;;;
2020/01/07 06:15:21;;;;;;;12.5;10;;;;;;;2.95;81.80176;968.7216;;;;
2020/01/07 06:17:46;;;;;;;11.5;10;;;;;;;2.93;82.90527;968.8047;;;;
2020/01/07 06:20:12;;;;;;;13.8;9.9;;;;;;;3;81.5752;968.7941;;;;
2020/01/07 06:22:37;;;;;;;11.4;10.2;;;;;;;2.98;81.40039;968.8926;;;;
2020/01/07 06:25:07;;;;;;;12.3;9.7;;;;;;;3.07;81.41797;968.9506;;;;
2020/01/07 06:27:32;;;;;;;13.4;11.2;;;;;;;2.96;81.76855;968.9683;;;;
2020/01/07 06:29:58;;;;;;;13;10.1;;;;;;;3.03;81.39941;968.9288;;;;
2020/01/07 06:32:23;;;;;;;13.3;10.6;;;;;;;3.06;81.5293;968.8431;;;;
2020/01/07 06:34:48;;;;;;;14.6;11.2;;;;;;;3.1;81.58301;968.8082;;;;
2020/01/07 06:37:14;;;;;;;12.8;11;;;;;;;3.14;81.0127;968.8811;;;;
2020/01/07 06:39:39;;;;;;;13.4;11.3;;;;;;;3.2;80.91113;968.9565;;;;
2020/01/07 06:42:04;;;;;;;14.5;10.9;;;;;;;3.23;81.10938;968.9836;;;;
2020/01/07 06:44:29;;;;;;;12.3;10.5;;;;;;;3.22;81.61621;969.0774;;;;
2020/01/07 06:46:54;;;;;;;12.2;10.4;;;;;;;3.22;83.09863;969.2008;;;;
2020/01/07 06:49:19;;;;;;;11.2;10;;;;;;;3.39;82.33984;969.2784;;;;
2020/01/07 06:51:44;;;;;;;12.1;10.8;;;;;;;3.36;82.31152;969.3215;;;;
2020/01/07 06:54:09;;;;;;;12.4;10.7;;;;;;;3.42;82.51465;969.356;;;;
2020/01/07 06:56:34;;;;;;;11.9;10.7;;;;;;;3.46;83.21191;969.4201;;;;
2020/01/07 06:58:59;;;;;;;12.4;11.1;;;;;;;3.42;83.375;969.3918;;;;
2020/01/07 07:01:25;;;;;;;12.7;11.3;;;;;;;3.26;83.69531;969.4732;;;;
2020/01/07 07:03:50;;;;;;;12.6;11.4;;;;;;;3.23;85.75879;969.6091;;;;
2020/01/07 07:06:15;;;;;;;12.6;11.3;;;;;;;3.31;84.64355;969.6872;;;;
2020/01/07 07:08:40;;;;;;;12.2;10.9;;;;;;;3.41;84.08594;969.7576;;;;
2020/01/07 07:11:05;;;;;;;12.6;11.3;;;;;;;3.44;83.92285;969.8744;;;;
2020/01/07 07:13:30;;;;;;;12.6;11.3;;;;;;;3.42;83.98633;969.9246;;;;
2020/01/07 07:15:55;;;;;;;13.4;11.5;;;;;;;3.55;82.90332;969.9028;;;;
2020/01/07 07:18:20;;;;;;;13.5;11.9;;;;;;;3.43;83.37793;970.0365;;;;
2020/01/07 07:20:45;;;;;;;12.6;11.3;;;;;;;3.48;83.18164;970.0795;;;;
2020/01/07 07:23:10;;;;;;;14;11.9;;;;;;;3.51;84.00195;970.0396;;;;
2020/01/07 07:25:35;;;;;;;13.4;12;;;;;;;3.45;84.625;970.0705;;;;
2020/01/07 07:28:00;;;;;;;13.9;12.5;;;;;;;3.48;84.49609;970.0744;;;;
2020/01/07 07:30:25;;;;;;;13.7;12.3;;;;;;;3.49;84.91895;970.1522;;;;
2020/01/07 07:32:50;;;;;;;14;12.2;;;;;;;3.42;83.95215;970.1333;;;;
2020/01/07 07:35:15;;;;;;;13;11.7;;;;;;;3.31;85.07324;970.2123;;;;
2020/01/07 07:37:41;;;;;;;14.4;12.4;;;;;;;3.39;86.07422;970.1724;;;;
2020/01/07 07:40:06;;;;;;;15.2;12.6;;;;;;;3.33;85.68848;970.2042;;;;
2020/01/07 07:42:31;;;;;;;15;13.4;;;;;;;3.26;87.40527;970.2355;;;;
2020/01/07 07:44:56;;;;;;;16.1;14.3;;;;;;;3.17;88.1543;970.3005;;;;
2020/01/07 07:47:21;;;;;;;16.4;14.4;;;;;;;3.15;88.72754;970.3541;;;;
2020/01/07 07:49:46;;;;;;;15.8;13.5;;;;;;;3.32;88.22168;970.3786;;;;
2020/01/07 07:52:11;;;;;;;15.3;13.5;;;;;;;3.13;89.07617;970.4006;;;;
2020/01/07 07:54:37;;;;;;;14.7;13.2;;;;;;;3.24;89.30176;970.4166;;;;
2020/01/07 07:57:02;;;;;;;15.9;14;;;;;;;3.09;90.0166;970.4293;;;;
2020/01/07 07:59:27;;;;;;;17.4;14.7;;;;;;;3.1;90.87793;970.445;;;;
2020/01/07 08:02:05;;;;;;;16.1;14.4;;;;;;;3.16;90.67676;970.4673;;;;
2020/01/07 08:06:49;;;;;;;17.6;15.4;;;;;;;3.09;92.05469;970.4763;;;;
2020/01/07 08:09:10;;;;;;;16.8;14.7;;;;;;;3.1;92.38281;970.4772;;;;
2020/01/07 08:11:44;;;;;;;18;15.7;;;;;;;3.15;92.55469;970.5759;;;;
2020/01/07 08:13:58;;;;;;;16.8;14.1;;;;;;;3.22;92.89453;970.6083;;;;
2020/01/07 08:16:23;;;;;;;16.9;14.1;;;;;;;3.18;93.35059;970.6678;;;;
2020/01/07 08:18:49;;;;;;;17.5;14.2;;;;;;;3.25;93.00391;970.6781;;;;
2020/01/07 08:21:14;;;;;;;18.5;14.9;;;;;;;3.3;93.77148;970.7296;;;;
2020/01/07 08:23:39;;;;;;;16.2;14.3;;;;;;;3.26;93.71875;970.8074;;;;
2020/01/07 08:26:04;;;;;;;18.2;14.7;;;;;;;3.35;93.61426;970.8091;;;;
2020/01/07 08:28:29;;;;;;;16.4;14.3;;;;;;;3.33;93.55176;970.8231;;;;
2020/01/07 08:30:54;;;;;;;17.2;14.6;;;;;;;3.42;93.49414;970.7517;;;;
2020/01/07 08:33:32;;;;;;;18.8;15.3;;;;;;;3.4;93.54492;970.7906;;;;
2020/01/07 08:35:45;;;;;;;17.6;15.5;;;;;;;3.53;93.25684;970.7787;;;;
2020/01/07 08:38:10;;;;;;;16.2;13.8;;;;;;;3.53;92.90625;970.8738;;;;
2020/01/07 08:40:35;;;;;;;16.9;15;;;;;;;3.47;93.22266;970.9465;;;;
2020/01/07 08:43:01;;;;;;;17.6;15.3;;;;;;;3.52;92.69141;970.9728;;;;
2020/01/07 08:45:26;;;;;;;17.1;14.9;;;;;;;3.61;92.25586;971.0281;;;;
2020/01/07 08:47:51;;;;;;;18.4;15.4;;;;;;;3.65;91.70996;971.0289;;;;
2020/01/07 08:50:16;;;;;;;20.5;16.7;;;;;;;3.69;91.71777;971.0369;;;;
2020/01/07 08:52:41;;;;;;;17;15.2;;;;;;;3.78;91.25;971.1053;;;;
2020/01/07 08:55:06;;;;;;;17.3;15.4;;;;;;;3.89;90.95801;971.1294;;;;
2020/01/07 08:57:31;;;;;;;17.8;15.7;;;;;;;3.84;90.3457;971.1557;;;;
2020/01/07 08:59:57;;;;;;;18.1;15.3;;;;;;;3.86;91.19043;971.1873;;;;
2020/01/07 09:02:22;;;;;;;16.9;15.1;;;;;;;3.99;90.50293;971.2789;;;;
2020/01/07 09:04:47;;;;;;;17;15.2;;;;;;;3.97;90.125;971.3094;;;;
2020/01/07 09:07:12;;;;;;;17.7;15.1;;;;;;;4.09;90.68457;971.321;;;;
2020/01/07 09:09:38;;;;;;;17.5;15.6;;;;;;;4.16;89.28027;971.3716;;;;
2020/01/07 09:12:03;;;;;;;17.6;15.7;;;;;;;4.02;90.29297;971.4567;;;;
2020/01/07 09:14:28;;;;;;;18.7;15.9;;;;;;;4.09;90.38574;971.4392;;;;
2020/01/07 09:16:53;;;;;;;18.3;15.5;;;;;;;4.14;89.73047;971.4395;;;;
2020/01/07 09:19:18;;;;;;;17.2;15.4;;;;;;;4.11;90.3916;971.4728;;;;
2020/01/07 09:21:44;;;;;;;18.2;15.7;;;;;;;4.18;90.10059;971.5359;;;;
2020/01/07 09:24:09;;;;;;;17.5;15.6;;;;;;;4.1;90.07227;971.543;;;;
2020/01/07 09:26:35;;;;;;;18.9;15.7;;;;;;;4.2;90.22949;971.595;;;;
2020/01/07 09:29:00;;;;;;;18;16;;;;;;;4.13;90.49707;971.6445;;;;
2020/01/07 09:31:25;;;;;;;19;16.3;;;;;;;3.99;90.85449;971.6518;;;;
2020/01/07 09:33:50;;;;;;;18.3;16.3;;;;;;;3.99;91.1377;971.6889;;;;
2020/01/07 09:36:15;;;;;;;18;16.1;;;;;;;4.11;91.01563;971.5599;;;;
2020/01/07 09:38:40;;;;;;;17.3;15.4;;;;;;;4.07;90.5752;971.5959;;;;
2020/01/07 09:41:05;;;;;;;19;15.8;;;;;;;4.3;90.13672;971.663;;;;
2020/01/07 09:43:31;;;;;;;17.1;15.3;;;;;;;4.21;90.36914;971.5939;;;;
2020/01/07 09:45:56;;;;;;;17.7;15.4;;;;;;;4.34;90.39551;971.6086;;;;
2020/01/07 09:48:21;;;;;;;17.5;15.7;;;;;;;4.35;90.46777;971.6085;;;;
2020/01/07 09:50:46;;;;;;;17.9;15.5;;;;;;;4.52;89.37793;971.6666;;;;
2020/01/07 09:53:31;;;;;;;18.3;15.6;;;;;;;4.38;89.73438;971.6462;;;;
2020/01/07 09:55:40;;;;;;;16.8;15;;;;;;;4.54;89.97266;971.6992;;;;
2020/01/07 09:58:49;;;;;;;18;15.5;;;;;;;4.5;89.68066;971.692;;;;
2020/01/07 10:02:51;;;;;;;16.9;14.8;;;;;;;4.49;89.99512;971.6785;;;;
2020/01/07 10:05:16;;;;;;;17.4;15.4;;;;;;;4.63;89.33301;971.7288;;;;
2020/01/07 10:07:41;;;;;;;15.7;14.1;;;;;;;4.74;89.61816;971.7777;;;;
2020/01/07 10:10:06;;;;;;;16.8;15;;;;;;;4.68;89.20801;971.7595;;;;
2020/01/07 10:12:32;;;;;;;17.4;14.5;;;;;;;4.71;89.86035;971.712;;;;
2020/01/07 10:14:57;;;;;;;16.8;14.5;;;;;;;4.93;88.41992;971.7178;;;;
2020/01/07 10:17:22;;;;;;;17.1;14.8;;;;;;;4.83;88.87402;971.7605;;;;
2020/01/07 10:19:47;;;;;;;15.7;13.7;;;;;;;4.93;88.60156;971.731;;;;
2020/01/07 10:22:12;;;;;;;17.5;14.7;;;;;;;4.94;88.19238;971.7145;;;;
2020/01/07 10:24:37;;;;;;;16;14.3;;;;;;;4.94;88.72852;971.7567;;;;
2020/01/07 10:27:02;;;;;;;15.7;13.7;;;;;;;5.08;88.21289;971.7375;;;;
2020/01/07 10:29:27;;;;;;;15.6;13.3;;;;;;;5.09;87.88477;971.7368;;;;
2020/01/07 10:31:52;;;;;;;16.3;14.1;;;;;;;4.94;88.80566;971.7307;;;;
2020/01/07 10:34:17;;;;;;;16.6;14.3;;;;;;;4.93;89.19238;971.7687;;;;
2020/01/07 10:36:42;;;;;;;16;13.7;;;;;;;4.96;88.41406;971.7784;;;;
2020/01/07 10:39:07;;;;;;;14.8;13;;;;;;;5.04;88.49902;971.7004;;;;
2020/01/07 10:41:33;;;;;;;14.6;12.8;;;;;;;5.02;88.73145;971.7191;;;;
2020/01/07 10:43:58;;;;;;;15.2;13.6;;;;;;;5.02;88.85645;971.7402;;;;
2020/01/07 10:46:23;;;;;;;13.9;12.4;;;;;;;5.17;88.47949;971.7686;;;;
2020/01/07 10:48:48;;;;;;;15.7;13.3;;;;;;;5.26;87.93164;971.8318;;;;
2020/01/07 10:51:13;;;;;;;15.8;13.6;;;;;;;5.1;88.49805;971.7911;;;;
2020/01/07 10:53:38;;;;;;;15.4;13.6;;;;;;;5.23;87.84277;971.7575;;;;
2020/01/07 10:56:03;;;;;;;16.2;13.4;;;;;;;5.26;88.34082;971.8061;;;;
2020/01/07 10:58:28;;;;;;;17.3;14.4;;;;;;;5.02;88.64258;971.8589;;;;
2020/01/07 11:00:53;;;;;;;15.4;13.7;;;;;;;5.1;88.35059;971.8169;;;;
2020/01/07 11:03:18;;;;;;;15.9;13.9;;;;;;;5.22;87.30859;971.8228;;;;
2020/01/07 11:05:44;;;;;;;15.6;13.2;;;;;;;5.03;88.19043;971.9041;;;;
2020/01/07 11:08:09;;;;;;;15.4;13.8;;;;;;;4.96;88.87988;971.9003;;;;
2020/01/07 11:10:34;;;;;;;16;13.3;;;;;;;4.92;89.06543;971.942;;;;
2020/01/07 11:12:59;;;;;;;15.6;13.6;;;;;;;5.01;88.74316;971.9105;;;;
2020/01/07 11:15:24;;;;;;;16.4;14;;;;;;;4.87;88.99707;971.9389;;;;
2020/01/07 11:17:49;;;;;;;16.4;13.6;;;;;;;5.05;88.39844;971.8939;;;;
2020/01/07 11:20:14;;;;;;;14.9;13.1;;;;;;;5;88.72754;971.9152;;;;
2020/01/07 11:22:39;;;;;;;14.2;12.7;;;;;;;4.96;88.77734;971.8754;;;;
2020/01/07 11:25:05;;;;;;;15.6;12.8;;;;;;;5.04;88.47559;971.8465;;;;
2020/01/07 11:27:30;;;;;;;16.9;13.7;;;;;;;4.99;88.7959;971.8558;;;;
2020/01/07 11:29:55;;;;;;;16.2;12.9;;;;;;;4.92;88.84961;971.8887;;;;
2020/01/07 11:32:20;;;;;;;14.9;13.1;;;;;;;4.79;89.40039;971.8301;;;;
2020/01/07 11:34:45;;;;;;;15.9;13.2;;;;;;;5.01;88.74316;971.8588;;;;
2020/01/07 11:37:11;;;;;;;15.3;13.4;;;;;;;5.08;88.31445;971.8336;;;;
2020/01/07 11:39:36;;;;;;;16.7;13.4;;;;;;;5.21;88.44141;971.8599;;;;
2020/01/07 11:42:02;;;;;;;16.2;13.6;;;;;;;5.2;87.47461;971.8215;;;;
2020/01/07 11:44:27;;;;;;;15.4;13;;;;;;;5.13;88.42676;971.8116;;;;
2020/01/07 11:46:53;;;;;;;15.1;12.7;;;;;;;5.18;88.1875;971.8173;;;;
2020/01/07 11:49:18;;;;;;;20.1;16.7;;;;;;;5.35;87.78906;971.8624;;;;
2020/01/07 11:51:43;;;;;;;16.1;13.3;;;;;;;5.15;88.08008;971.8358;;;;
2020/01/07 11:54:58;;;;;;;13.4;12;;;;;;;5.11;88.42285;971.851;;;;
2020/01/07 11:57:00;;;;;;;15.6;13.6;;;;;;;5.31;87.91797;971.8894;;;;
2020/01/07 12:04:09;;;;;;;13.3;11.7;;;;;;;5.37;87.80566;971.8865;;;;
2020/01/07 12:06:14;;;;;;;13.7;11.8;;;;;;;5.33;87.80762;971.8655;;;;
2020/01/07 12:08:39;;;;;;;12.5;11.2;;;;;;;5.38;88.0459;971.8628;;;;
2020/01/07 12:11:04;;;;;;;12.3;11;;;;;;;5.31;88.05371;971.8691;;;;
2020/01/07 12:13:30;;;;;;;13.1;11.5;;;;;;;5.33;88.38965;971.9337;;;;
2020/01/07 12:15:55;;;;;;;14;11.9;;;;;;;5.39;87.84375;971.9542;;;;
2020/01/07 12:18:20;;;;;;;12.5;10.7;;;;;;;5.21;88.28223;971.9407;;;;
2020/01/07 12:20:46;;;;;;;12.6;11;;;;;;;5.29;88.25293;971.9492;;;;
2020/01/07 12:23:11;;;;;;;13.4;10.8;;;;;;;5.23;88.59473;971.9306;;;;
2020/01/07 12:25:36;;;;;;;12.5;10.5;;;;;;;5.29;88.37988;971.9489;;;;
2020/01/07 12:28:01;;;;;;;11.2;10;;;;;;;5.28;88.87891;971.9216;;;;
2020/01/07 12:30:26;;;;;;;10.6;9.5;;;;;;;5.31;88.62305;971.9127;;;;
2020/01/07 12:32:52;;;;;;;10.6;9.5;;;;;;;5.41;87.96094;971.8549;;;;
2020/01/07 12:35:17;;;;;;;11.8;9.7;;;;;;;5.16;89.03613;971.8984;;;;
2020/01/07 12:37:43;;;;;;;10.8;9.3;;;;;;;5.18;89.39258;971.8658;;;;
2020/01/07 12:40:08;;;;;;;11.1;9.1;;;;;;;5.15;89.45508;971.8778;;;;
2020/01/07 12:42:33;;;;;;;10.3;8.4;;;;;;;5.37;88.9541;971.8694;;;;
2020/01/07 12:44:58;;;;;;;10.3;8.5;;;;;;;5.18;89.20898;971.838;;;;
2020/01/07 12:47:24;;;;;;;11.2;8.8;;;;;;;5.11;89.70703;971.9227;;;;
2020/01/07 12:49:49;;;;;;;10.1;8.5;;;;;;;5.22;89.18359;971.9004;;;;
2020/01/07 12:52:15;;;;;;;8.9;8;;;;;;;5.24;89.24414;971.928;;;;
2020/01/07 12:54:40;;;;;;;10.3;8.2;;;;;;;5.21;89.15918;971.9045;;;;
2020/01/07 12:57:06;;;;;;;9.6;8;;;;;;;5.32;88.81934;971.9037;;;;
2020/01/07 12:59:31;;;;;;;8.8;7.6;;;;;;;5.36;88.50879;971.9436;;;;
2020/01/07 13:01:56;;;;;;;9.4;8;;;;;;;5.4;87.9248;971.9036;;;;
2020/01/07 13:04:22;;;;;;;9.1;8.1;;;;;;;5.28;88.89941;971.9327;;;;
2020/01/07 13:06:47;;;;;;;10.5;8.2;;;;;;;5.22;88.49023;971.9816;;;;
2020/01/07 13:09:12;;;;;;;9;7.8;;;;;;;5.34;88.00488;971.9568;;;;
2020/01/07 13:11:37;;;;;;;8.9;7.7;;;;;;;5.45;87.70801;971.9478;;;;
2020/01/07 13:14:02;;;;;;;9.7;7.8;;;;;;;5.34;88.42578;971.9995;;;;
2020/01/07 13:16:27;;;;;;;9.7;7.8;;;;;;;5.34;88.19629;971.9766;;;;
2020/01/07 13:18:53;;;;;;;8.8;7.6;;;;;;;5.26;88.27051;971.9451;;;;
2020/01/07 13:21:18;;;;;;;9;7.2;;;;;;;5.17;88.92285;972.0111;;;;
2020/01/07 13:23:44;;;;;;;9;7.4;;;;;;;5.26;88.81836;971.9971;;;;
2020/01/07 13:26:09;;;;;;;8.9;7.4;;;;;;;5.37;88.29492;972.0408;;;;
2020/01/07 13:28:34;;;;;;;9.8;7.4;;;;;;;5.43;88.25098;971.9791;;;;
2020/01/07 13:30:59;;;;;;;8.6;7.4;;;;;;;5.4;88.08398;971.9489;;;;
2020/01/07 13:33:25;;;;;;;10.8;8.1;;;;;;;5.4;87.91309;972.05;;;;
2020/01/07 13:35:50;;;;;;;9.2;7.7;;;;;;;5.44;88.05762;972.0447;;;;
2020/01/07 13:38:16;;;;;;;8.2;6.9;;;;;;;5.68;86.35645;972.1006;;;;
2020/01/07 13:40:41;;;;;;;7.8;6.7;;;;;;;5.66;85.96387;972.0547;;;;
2020/01/07 13:43:06;;;;;;;7.4;6.6;;;;;;;5.44;87.64941;972.0028;;;;
2020/01/07 13:45:32;;;;;;;9.3;6.7;;;;;;;5.56;86.83203;972.0609;;;;
2020/01/07 13:47:57;;;;;;;8;6.4;;;;;;;5.57;86.69922;972.0545;;;;
2020/01/07 13:50:22;;;;;;;6.8;6;;;;;;;5.46;87.13965;972.0695;;;;
2020/01/07 13:52:47;;;;;;;7.8;6.5;;;;;;;5.5;86.69434;972.0928;;;;
2020/01/07 13:55:12;;;;;;;7.9;6.4;;;;;;;5.44;87.00195;972.1302;;;;
2020/01/07 13:57:38;;;;;;;8.7;7.1;;;;;;;5.39;87.36621;972.1359;;;;
2020/01/07 14:00:03;;;;;;;8.6;6.8;;;;;;;5.38;87.375;972.1647;;;;
2020/01/07 14:02:29;;;;;;;8.7;6.8;;;;;;;5.52;86.49512;972.1548;;;;
2020/01/07 14:04:54;;;;;;;8.9;7;;;;;;;5.37;87.60059;972.1808;;;;
2020/01/07 14:07:19;;;;;;;7.2;6;;;;;;;5.41;87.23145;972.2417;;;;
2020/01/07 14:09:44;;;;;;;7.2;6.1;;;;;;;5.68;86.42285;972.2958;;;;
2020/01/07 14:12:10;;;;;;;6.7;6;;;;;;;5.69;86.20898;972.3014;;;;
2020/01/07 14:14:35;;;;;;;6.6;5.9;;;;;;;5.5;87.46777;972.3224;;;;
2020/01/07 14:17:24;;;;;;;6.5;5.9;;;;;;;5.53;87.74609;972.366;;;;
2020/01/07 14:24:15;;;;;;;6.7;6;;;;;;;5.68;86.58398;972.4034;;;;
2020/01/07 14:26:40;;;;;;;7.4;6.6;;;;;;;5.66;86.27148;972.4345;;;;
2020/01/07 14:29:05;;;;;;;7.3;6.3;;;;;;;5.6;86.13574;972.412;;;;